PWSweather.com
Personal Weather Stations
Station Observations
COONRAPIDS
Minneapolis, MN 55433

Minneapolis, MN 55433

Lat: 45.187721, Lon: -93.36828

Elevation: 898

Station Type: Davis Vantage Pro 2

High Low Average
Temperature 74.1°F23.4°C 63.3°F17.4°C 67.3°F19.6°C
Dew Point 64.5°F18.1°C 57.6°F14.2°C 60.4°F15.8°C
Winds 1.2 mph 1.9 kmh Calm Calm Calm ECalm E
Wind Gusts 6.9 mph11.1 kmh -- --
Humidity 85% 69% 79%
Pressure 29.89 in1012.2 mb 29.64 in1003.7 mb -
Precipitation 0.06 in1.5 mm - -
Hour Temp Dew Point Humidity Winds Wind Gusts Pressure Precip Precip Rate Daily Precip Total
12:00 AM 68.5°F20.3°C 57.5°F14.2°C 68% Calm Calm -- 29.90 in1012.5 mb - 0.00 in0.0 mm 0.00 in0.0 mm
12:10 AM 68.3°F20.2°C 57.8°F14.3°C 69% Calm Calm -- 29.90 in1012.5 mb - 0.00 in0.0 mm 0.00 in0.0 mm
12:20 AM 68.2°F20.1°C 57.6°F14.2°C 69% Calm Calm -- 29.90 in1012.5 mb - 0.00 in0.0 mm 0.00 in0.0 mm
12:30 AM 68.1°F20.1°C 57.9°F14.4°C 70% Calm Calm -- 29.90 in1012.5 mb - 0.00 in0.0 mm 0.00 in0.0 mm
12:40 AM 67.9°F19.9°C 58.1°F14.5°C 71% Calm Calm -- 29.89 in1012.2 mb - 0.00 in0.0 mm 0.00 in0.0 mm
12:50 AM 67.7°F19.8°C 58.0°F14.4°C 71% Calm Calm -- 29.89 in1012.2 mb - 0.00 in0.0 mm 0.00 in0.0 mm
01:00 AM 67.4°F19.7°C 57.7°F14.3°C 71% Calm Calm -- 29.89 in1012.2 mb - 0.00 in0.0 mm 0.00 in0.0 mm
01:10 AM 67.2°F19.6°C 57.9°F14.4°C 72% Calm Calm -- 29.89 in1012.2 mb - 0.00 in0.0 mm 0.00 in0.0 mm
01:20 AM 66.9°F19.4°C 58.0°F14.4°C 73% Calm Calm -- 29.88 in1011.9 mb - 0.00 in0.0 mm 0.00 in0.0 mm
01:30 AM 66.6°F19.2°C 57.7°F14.3°C 73% Calm Calm -- 29.88 in1011.9 mb - 0.00 in0.0 mm 0.00 in0.0 mm
01:40 AM 66.4°F19.1°C 57.8°F14.3°C 74% Calm Calm -- 29.87 in1011.5 mb - 0.00 in0.0 mm 0.00 in0.0 mm
01:50 AM 66.1°F18.9°C 57.6°F14.2°C 74% Calm Calm -- 29.87 in1011.5 mb - 0.00 in0.0 mm 0.00 in0.0 mm
02:00 AM 65.9°F18.8°C 57.7°F14.3°C 75% Calm Calm -- 29.87 in1011.5 mb - 0.00 in0.0 mm 0.00 in0.0 mm
02:10 AM 65.7°F18.7°C 57.9°F14.4°C 76% Calm Calm -- 29.86 in1011.2 mb - 0.00 in0.0 mm 0.00 in0.0 mm
02:20 AM 65.6°F18.7°C 57.8°F14.3°C 76% Calm Calm -- 29.86 in1011.2 mb - 0.00 in0.0 mm 0.00 in0.0 mm
02:30 AM 65.5°F18.6°C 57.7°F14.3°C 76% Calm Calm -- 29.86 in1011.2 mb - 0.00 in0.0 mm 0.00 in0.0 mm
02:40 AM 65.4°F18.6°C 58.0°F14.4°C 77% Calm Calm -- 29.86 in1011.2 mb - 0.00 in0.0 mm 0.00 in0.0 mm
02:50 AM 65.4°F18.6°C 58.0°F14.4°C 77% Calm Calm -- 29.86 in1011.2 mb - 0.00 in0.0 mm 0.00 in0.0 mm
03:00 AM 65.4°F18.6°C 58.0°F14.4°C 77% Calm Calm -- 29.86 in1011.2 mb - 0.00 in0.0 mm 0.00 in0.0 mm
03:10 AM 65.4°F18.6°C 58.4°F14.7°C 78% Calm Calm -- 29.86 in1011.2 mb - 0.00 in0.0 mm 0.00 in0.0 mm
03:20 AM 65.3°F18.5°C 58.3°F14.6°C 78% Calm Calm -- 29.85 in1010.8 mb - 0.00 in0.0 mm 0.00 in0.0 mm
03:30 AM 65.3°F18.5°C 58.3°F14.6°C 78% Calm Calm -- 29.85 in1010.8 mb - 0.00 in0.0 mm 0.00 in0.0 mm
03:40 AM 65.2°F18.4°C 58.2°F14.6°C 78% Calm Calm -- 29.85 in1010.8 mb - 0.00 in0.0 mm 0.00 in0.0 mm
03:50 AM 65.1°F18.4°C 58.1°F14.5°C 78% Calm Calm -- 29.85 in1010.8 mb - 0.00 in0.0 mm 0.00 in0.0 mm
04:00 AM 64.9°F18.3°C 57.9°F14.4°C 78% Calm Calm -- 29.84 in1010.5 mb - 0.00 in0.0 mm 0.00 in0.0 mm
04:10 AM 64.9°F18.3°C 58.2°F14.6°C 79% Calm Calm -- 29.84 in1010.5 mb - 0.00 in0.0 mm 0.00 in0.0 mm
04:20 AM 64.8°F18.2°C 58.1°F14.5°C 79% Calm Calm -- 29.84 in1010.5 mb - 0.00 in0.0 mm 0.00 in0.0 mm
04:30 AM 64.7°F18.2°C 58.4°F14.7°C 80% Calm Calm -- 29.84 in1010.5 mb - 0.00 in0.0 mm 0.00 in0.0 mm
04:40 AM 64.7°F18.2°C 58.4°F14.7°C 80% Calm Calm -- 29.83 in1010.2 mb - 0.00 in0.0 mm 0.00 in0.0 mm
04:50 AM 64.7°F18.2°C 58.3°F14.6°C 80% Calm Calm -- 29.83 in1010.2 mb - 0.00 in0.0 mm 0.00 in0.0 mm
05:00 AM 64.6°F18.1°C 58.6°F14.8°C 81% Calm Calm -- 29.83 in1010.2 mb - 0.00 in0.0 mm 0.00 in0.0 mm
05:10 AM 64.6°F18.1°C 58.6°F14.8°C 81% Calm Calm -- 29.82 in1009.8 mb - 0.00 in0.0 mm 0.00 in0.0 mm
05:20 AM 64.6°F18.1°C 59.0°F15.0°C 82% Calm Calm -- 29.82 in1009.8 mb - 0.00 in0.0 mm 0.00 in0.0 mm
05:30 AM 64.6°F18.1°C 59.0°F15.0°C 82% Calm Calm -- 29.82 in1009.8 mb - 0.00 in0.0 mm 0.00 in0.0 mm
05:40 AM 65.0°F18.3°C 59.3°F15.2°C 82% Calm Calm -- 29.81 in1009.5 mb - 0.00 in0.0 mm 0.00 in0.0 mm
05:50 AM 65.0°F18.3°C 59.4°F15.2°C 82% Calm Calm -- 29.81 in1009.5 mb - 0.00 in0.0 mm 0.00 in0.0 mm
06:00 AM 65.4°F18.6°C 60.1°F15.6°C 83% Calm Calm -- 29.81 in1009.5 mb - 0.00 in0.0 mm 0.00 in0.0 mm
06:10 AM 65.9°F18.8°C 60.3°F15.7°C 82% Calm Calm -- 29.81 in1009.5 mb - 0.00 in0.0 mm 0.00 in0.0 mm
06:20 AM 66.4°F19.1°C 60.4°F15.8°C 81% Calm Calm -- 29.80 in1009.1 mb - 0.00 in0.0 mm 0.00 in0.0 mm
06:30 AM 66.7°F19.3°C 61.0°F16.1°C 82% Calm Calm -- 29.80 in1009.1 mb - 0.00 in0.0 mm 0.00 in0.0 mm
06:40 AM 67.0°F19.4°C 61.3°F16.3°C 82% Calm Calm -- 29.80 in1009.1 mb - 0.00 in0.0 mm 0.00 in0.0 mm
06:50 AM 67.5°F19.7°C 61.5°F16.4°C 81% Calm Calm -- 29.79 in1008.8 mb - 0.00 in0.0 mm 0.00 in0.0 mm
07:00 AM 67.9°F19.9°C 61.9°F16.6°C 81% Calm Calm -- 29.79 in1008.8 mb - 0.00 in0.0 mm 0.00 in0.0 mm
07:10 AM 68.1°F20.1°C 62.0°F16.7°C 81% Calm Calm -- 29.78 in1008.5 mb - 0.00 in0.0 mm 0.00 in0.0 mm
07:20 AM 68.6°F20.3°C 62.5°F16.9°C 81% Calm Calm -- 29.78 in1008.5 mb - 0.00 in0.0 mm 0.00 in0.0 mm
07:30 AM 69.4°F20.8°C 62.9°F17.2°C 80% Calm Calm -- 29.77 in1008.1 mb - 0.00 in0.0 mm 0.00 in0.0 mm
07:40 AM 70.2°F21.2°C 63.0°F17.2°C 78% Calm Calm -- 29.77 in1008.1 mb - 0.00 in0.0 mm 0.00 in0.0 mm
07:50 AM 70.9°F21.6°C 63.3°F17.4°C 77% Calm Calm -- 29.77 in1008.1 mb - 0.00 in0.0 mm 0.00 in0.0 mm
08:00 AM 71.1°F21.7°C 63.5°F17.5°C 77% Calm Calm -- 29.77 in1008.1 mb - 0.00 in0.0 mm 0.00 in0.0 mm
08:10 AM 71.5°F21.9°C 63.5°F17.5°C 76% Calm Calm -- 29.77 in1008.1 mb - 0.00 in0.0 mm 0.00 in0.0 mm
08:20 AM 71.9°F22.2°C 63.9°F17.7°C 76% Calm Calm -- 29.77 in1008.1 mb - 0.00 in0.0 mm 0.00 in0.0 mm
08:30 AM 72.8°F22.7°C 64.4°F18.0°C 75% Calm Calm -- 29.78 in1008.5 mb - 0.00 in0.0 mm 0.00 in0.0 mm
08:40 AM 73.2°F22.9°C 64.0°F17.8°C 73% Calm Calm -- 29.77 in1008.1 mb - 0.00 in0.0 mm 0.00 in0.0 mm
08:50 AM 74.1°F23.4°C 64.1°F17.8°C 71% Calm Calm -- 29.77 in1008.1 mb - 0.00 in0.0 mm 0.00 in0.0 mm
09:00 AM 73.9°F23.3°C 63.9°F17.7°C 71% Calm Calm -- 29.77 in1008.1 mb - 0.00 in0.0 mm 0.00 in0.0 mm
09:10 AM 73.7°F23.2°C 63.7°F17.6°C 71% Calm Calm -- 29.76 in1007.8 mb - 0.00 in0.0 mm 0.00 in0.0 mm
09:20 AM 73.5°F23.1°C 63.5°F17.5°C 71% Calm Calm -- 29.76 in1007.8 mb - 0.00 in0.0 mm 0.00 in0.0 mm
09:30 AM 73.3°F22.9°C 64.1°F17.8°C 73% Calm Calm -- 29.75 in1007.5 mb - 0.00 in0.0 mm 0.00 in0.0 mm
09:40 AM 73.2°F22.9°C 63.6°F17.6°C 72% Calm Calm -- 29.75 in1007.5 mb - 0.00 in0.0 mm 0.00 in0.0 mm
09:50 AM 73.0°F22.8°C 63.8°F17.7°C 73% Calm Calm -- 29.75 in1007.5 mb - 0.00 in0.0 mm 0.00 in0.0 mm
10:00 AM 72.9°F22.7°C 62.9°F17.2°C 71% 1.2 mph SE1.9 kmh SE 3.5 mph5.6 kmh 29.75 in1007.5 mb - 0.00 in0.0 mm 0.00 in0.0 mm
10:10 AM 72.8°F22.7°C 62.8°F17.1°C 71% Calm Calm 1.2 mph1.9 kmh 29.74 in1007.1 mb - 0.00 in0.0 mm 0.00 in0.0 mm
10:20 AM 72.5°F22.5°C 61.7°F16.5°C 69% Calm Calm -- 29.74 in1007.1 mb - 0.00 in0.0 mm 0.00 in0.0 mm
10:30 AM 72.4°F22.4°C 62.5°F16.9°C 71% Calm Calm -- 29.74 in1007.1 mb - 0.00 in0.0 mm 0.00 in0.0 mm
10:40 AM 72.5°F22.5°C 62.2°F16.8°C 70% Calm Calm -- 29.74 in1007.1 mb - 0.00 in0.0 mm 0.00 in0.0 mm
10:50 AM 72.2°F22.3°C 61.9°F16.6°C 70% Calm Calm -- 29.74 in1007.1 mb - 0.00 in0.0 mm 0.00 in0.0 mm
11:00 AM 71.6°F22.0°C 61.7°F16.5°C 71% Calm Calm -- 29.74 in1007.1 mb - 0.00 in0.0 mm 0.00 in0.0 mm
11:10 AM 70.8°F21.6°C 61.7°F16.5°C 73% 1.2 mph S1.9 kmh S 6.9 mph11.1 kmh 29.75 in1007.5 mb - 0.00 in0.0 mm 0.00 in0.0 mm
11:20 AM 69.8°F21.0°C 61.5°F16.4°C 75% Calm Calm 1.2 mph1.9 kmh 29.75 in1007.5 mb - 0.00 in0.0 mm 0.00 in0.0 mm
11:30 AM 68.7°F20.4°C 61.9°F16.6°C 79% Calm Calm -- 29.76 in1007.8 mb - 0.02 in0.5 mm 0.02 in0.5 mm
11:40 AM 68.1°F20.1°C 62.7°F17.1°C 83% Calm Calm -- 29.76 in1007.8 mb - 0.01 in0.3 mm 0.02 in0.5 mm
11:50 AM 68.2°F20.1°C 62.9°F17.2°C 83% Calm Calm -- 29.75 in1007.5 mb - 0.00 in0.0 mm 0.02 in0.5 mm
12:00 PM 68.2°F20.1°C 62.8°F17.1°C 83% 1.2 mph SE1.9 kmh SE 1.2 mph1.9 kmh 29.75 in1007.5 mb - 0.00 in0.0 mm 0.02 in0.5 mm
12:10 PM 68.2°F20.1°C 63.2°F17.3°C 84% Calm Calm -- 29.73 in1006.8 mb - 0.02 in0.5 mm 0.04 in1.0 mm
12:20 PM 68.2°F20.1°C 63.2°F17.3°C 84% Calm Calm -- 29.73 in1006.8 mb - 0.01 in0.3 mm 0.04 in1.0 mm
12:30 PM 68.5°F20.3°C 63.8°F17.7°C 85% Calm Calm -- 29.72 in1006.4 mb - 0.00 in0.0 mm 0.04 in1.0 mm
12:40 PM 69.2°F20.7°C 64.5°F18.1°C 85% 1.2 mph ESE1.9 kmh ESE 1.2 mph1.9 kmh 29.72 in1006.4 mb - 0.00 in0.0 mm 0.04 in1.0 mm
12:50 PM 69.6°F20.9°C 64.5°F18.1°C 84% Calm Calm 1.2 mph1.9 kmh 29.71 in1006.1 mb - 0.00 in0.0 mm 0.04 in1.0 mm
01:00 PM 69.5°F20.8°C 63.8°F17.7°C 82% Calm Calm -- 29.70 in1005.8 mb - 0.00 in0.0 mm 0.04 in1.0 mm
01:10 PM 69.4°F20.8°C 63.7°F17.6°C 82% Calm Calm -- 29.70 in1005.8 mb - 0.00 in0.0 mm 0.04 in1.0 mm
01:20 PM 69.5°F20.8°C 63.4°F17.4°C 81% Calm Calm 1.2 mph1.9 kmh 29.70 in1005.8 mb - 0.00 in0.0 mm 0.04 in1.0 mm
01:30 PM 69.6°F20.9°C 63.9°F17.7°C 82% Calm Calm -- 29.70 in1005.8 mb - 0.00 in0.0 mm 0.04 in1.0 mm
01:40 PM 69.8°F21.0°C 63.3°F17.4°C 80% Calm Calm -- 29.70 in1005.8 mb - 0.00 in0.0 mm 0.04 in1.0 mm
01:50 PM 69.8°F21.0°C 63.3°F17.4°C 80% Calm Calm -- 29.70 in1005.8 mb - 0.00 in0.0 mm 0.04 in1.0 mm
02:00 PM 69.9°F21.1°C 63.1°F17.3°C 79% 1.2 mph SE1.9 kmh SE 3.5 mph5.6 kmh 29.70 in1005.8 mb - 0.00 in0.0 mm 0.04 in1.0 mm
02:10 PM 69.5°F20.8°C 62.7°F17.1°C 79% Calm Calm 2.3 mph3.7 kmh 29.70 in1005.8 mb - 0.00 in0.0 mm 0.04 in1.0 mm
02:20 PM 69.5°F20.8°C 63.1°F17.3°C 80% 1.2 mph ESE1.9 kmh ESE 2.3 mph3.7 kmh 29.70 in1005.8 mb - 0.00 in0.0 mm 0.04 in1.0 mm
02:30 PM 69.8°F21.0°C 63.0°F17.2°C 79% Calm Calm 1.2 mph1.9 kmh 29.70 in1005.8 mb - 0.00 in0.0 mm 0.04 in1.0 mm
02:40 PM 69.8°F21.0°C 62.3°F16.8°C 77% Calm Calm -- 29.70 in1005.8 mb - 0.00 in0.0 mm 0.04 in1.0 mm
02:50 PM 69.5°F20.8°C 62.7°F17.1°C 79% Calm Calm -- 29.69 in1005.4 mb - 0.01 in0.3 mm 0.05 in1.3 mm
03:00 PM 69.0°F20.6°C 62.2°F16.8°C 79% 1.2 mph ESE1.9 kmh ESE -- 29.69 in1005.4 mb - 0.00 in0.0 mm 0.05 in1.3 mm
04:30 PM 68.5°F20.3°C 58.3°F14.6°C 70% Calm Calm -- 29.67 in1004.7 mb - 0.00 in0.0 mm 0.05 in1.3 mm
04:40 PM 68.5°F20.3°C 58.7°F14.8°C 71% 1.2 mph ESE1.9 kmh ESE 2.3 mph3.7 kmh 29.68 in1005.1 mb - 0.00 in0.0 mm 0.05 in1.3 mm
04:50 PM 68.4°F20.2°C 59.0°F15.0°C 72% Calm Calm 3.5 mph5.6 kmh 29.68 in1005.1 mb - 0.00 in0.0 mm 0.05 in1.3 mm
05:00 PM 68.2°F20.1°C 59.2°F15.1°C 73% 1.2 mph E1.9 kmh E 3.5 mph5.6 kmh 29.68 in1005.1 mb - 0.00 in0.0 mm 0.05 in1.3 mm
05:10 PM 68.1°F20.1°C 59.1°F15.1°C 73% Calm Calm -- 29.68 in1005.1 mb - 0.00 in0.0 mm 0.05 in1.3 mm
05:20 PM 68.1°F20.1°C 58.7°F14.8°C 72% Calm Calm -- 29.67 in1004.7 mb - 0.00 in0.0 mm 0.05 in1.3 mm
05:30 PM 68.2°F20.1°C 59.2°F15.1°C 73% Calm Calm -- 29.67 in1004.7 mb - 0.00 in0.0 mm 0.05 in1.3 mm
05:40 PM 68.1°F20.1°C 59.5°F15.3°C 74% Calm Calm -- 29.67 in1004.7 mb - 0.00 in0.0 mm 0.05 in1.3 mm
05:50 PM 67.9°F19.9°C 59.7°F15.4°C 75% 1.2 mph E1.9 kmh E 3.5 mph5.6 kmh 29.67 in1004.7 mb - 0.00 in0.0 mm 0.05 in1.3 mm
06:00 PM 67.6°F19.8°C 59.4°F15.2°C 75% Calm Calm -- 29.67 in1004.7 mb - 0.00 in0.0 mm 0.05 in1.3 mm
06:10 PM 67.2°F19.6°C 59.4°F15.2°C 76% 1.2 mph E1.9 kmh E 3.5 mph5.6 kmh 29.66 in1004.4 mb - 0.01 in0.3 mm 0.06 in1.5 mm
06:20 PM 66.2°F19.0°C 59.8°F15.4°C 80% Calm Calm -- 29.66 in1004.4 mb - 0.01 in0.3 mm 0.06 in1.5 mm
06:30 PM 65.7°F18.7°C 60.1°F15.6°C 82% Calm Calm -- 29.66 in1004.4 mb - 0.00 in0.0 mm 0.06 in1.5 mm
06:40 PM 65.6°F18.7°C 59.9°F15.5°C 82% Calm Calm -- 29.65 in1004.1 mb - 0.00 in0.0 mm 0.06 in1.5 mm
06:50 PM 65.6°F18.7°C 59.6°F15.3°C 81% Calm Calm -- 29.65 in1004.1 mb - 0.00 in0.0 mm 0.06 in1.5 mm
07:00 PM 65.7°F18.7°C 60.1°F15.6°C 82% Calm Calm -- 29.65 in1004.1 mb - 0.00 in0.0 mm 0.06 in1.5 mm
07:10 PM 65.7°F18.7°C 60.1°F15.6°C 82% Calm Calm -- 29.65 in1004.1 mb - 0.00 in0.0 mm 0.06 in1.5 mm
07:20 PM 65.5°F18.6°C 60.2°F15.7°C 83% Calm Calm -- 29.65 in1004.1 mb - 0.00 in0.0 mm 0.06 in1.5 mm
07:30 PM 65.3°F18.5°C 60.3°F15.7°C 84% Calm Calm -- 29.65 in1004.1 mb - 0.00 in0.0 mm 0.06 in1.5 mm
07:40 PM 65.2°F18.4°C 60.2°F15.7°C 84% Calm Calm -- 29.65 in1004.1 mb - 0.00 in0.0 mm 0.06 in1.5 mm
07:50 PM 65.2°F18.4°C 60.6°F15.9°C 85% Calm Calm -- 29.65 in1004.1 mb - 0.00 in0.0 mm 0.06 in1.5 mm
08:00 PM 65.1°F18.4°C 60.1°F15.6°C 84% Calm Calm -- 29.65 in1004.1 mb - 0.00 in0.0 mm 0.06 in1.5 mm
08:10 PM 65.0°F18.3°C 60.0°F15.6°C 84% Calm Calm -- 29.64 in1003.7 mb - 0.00 in0.0 mm 0.06 in1.5 mm
08:20 PM 64.9°F18.3°C 59.6°F15.3°C 83% Calm Calm -- 29.65 in1004.1 mb - 0.00 in0.0 mm 0.06 in1.5 mm
08:30 PM 64.9°F18.3°C 59.6°F15.3°C 83% Calm Calm -- 29.64 in1003.7 mb - 0.00 in0.0 mm 0.06 in1.5 mm
08:40 PM 64.7°F18.2°C 59.4°F15.2°C 83% Calm Calm -- 29.64 in1003.7 mb - 0.00 in0.0 mm 0.06 in1.5 mm
08:50 PM 64.5°F18.1°C 59.2°F15.1°C 83% Calm Calm -- 29.64 in1003.7 mb - 0.00 in0.0 mm 0.06 in1.5 mm
09:00 PM 64.2°F17.9°C 58.6°F14.8°C 82% Calm Calm -- 29.64 in1003.7 mb - 0.00 in0.0 mm 0.06 in1.5 mm
09:10 PM 64.0°F17.8°C 58.1°F14.5°C 81% Calm Calm -- 29.64 in1003.7 mb - 0.00 in0.0 mm 0.06 in1.5 mm
09:20 PM 63.8°F17.7°C 57.9°F14.4°C 81% Calm Calm 1.2 mph1.9 kmh 29.64 in1003.7 mb - 0.00 in0.0 mm 0.06 in1.5 mm
09:30 PM 63.7°F17.6°C 57.8°F14.3°C 81% Calm Calm -- 29.65 in1004.1 mb - 0.00 in0.0 mm 0.06 in1.5 mm
09:40 PM 63.5°F17.5°C 57.6°F14.2°C 81% Calm Calm -- 29.65 in1004.1 mb - 0.00 in0.0 mm 0.06 in1.5 mm
09:50 PM 63.4°F17.4°C 57.8°F14.3°C 82% Calm Calm -- 29.65 in1004.1 mb - 0.00 in0.0 mm 0.06 in1.5 mm
10:00 PM 63.3°F17.4°C 57.7°F14.3°C 82% Calm Calm -- 29.66 in1004.4 mb - 0.00 in0.0 mm 0.06 in1.5 mm
10:10 PM 63.4°F17.4°C 58.1°F14.5°C 83% Calm Calm -- 29.66 in1004.4 mb - 0.00 in0.0 mm 0.06 in1.5 mm
10:20 PM 63.5°F17.5°C 58.2°F14.6°C 83% Calm Calm 5.8 mph9.3 kmh 29.66 in1004.4 mb - 0.00 in0.0 mm 0.06 in1.5 mm
10:30 PM 63.6°F17.6°C 58.3°F14.6°C 83% Calm Calm -- 29.66 in1004.4 mb - 0.00 in0.0 mm 0.06 in1.5 mm
10:40 PM 63.7°F17.6°C 58.4°F14.7°C 83% Calm Calm -- 29.67 in1004.7 mb - 0.00 in0.0 mm 0.06 in1.5 mm
10:50 PM 63.8°F17.7°C 58.5°F14.7°C 83% Calm Calm 2.3 mph3.7 kmh 29.66 in1004.4 mb - 0.00 in0.0 mm 0.06 in1.5 mm
11:00 PM 63.9°F17.7°C 58.6°F14.8°C 83% Calm Calm -- 29.66 in1004.4 mb - 0.00 in0.0 mm 0.06 in1.5 mm
11:10 PM 63.9°F17.7°C 58.6°F14.8°C 83% Calm Calm -- 29.66 in1004.4 mb - 0.00 in0.0 mm 0.06 in1.5 mm
11:20 PM 63.9°F17.7°C 59.0°F15.0°C 84% Calm Calm -- 29.66 in1004.4 mb - 0.00 in0.0 mm 0.06 in1.5 mm
11:30 PM 63.9°F17.7°C 59.0°F15.0°C 84% Calm Calm -- 29.66 in1004.4 mb - 0.00 in0.0 mm 0.06 in1.5 mm
11:40 PM 63.9°F17.7°C 59.0°F15.0°C 84% Calm Calm -- 29.66 in1004.4 mb - 0.00 in0.0 mm 0.06 in1.5 mm
11:50 PM 64.0°F17.8°C 59.1°F15.1°C 84% Calm Calm 3.5 mph5.6 kmh 29.66 in1004.4 mb - 0.00 in0.0 mm 0.06 in1.5 mm